Time;durP1;ratioP1;P1;durP2;ratioP2;P2;SDS_P1;SDS_P2;PMS_P1;PMS_P2;Temp;Humidity;BMP_temperature;BMP_pressure;BME280_temperature;BME280_humidity;BME280_pressure;Samples;Min_cycle;Max_cycle;Signal;HPM_P1;HPM_P2
2022/01/19 00:01:05;;;;;;;;;;;;;;;7.60;40.90;100873.22;4483223;32;35397;-85
2022/01/19 00:03:32;;;;;;;;;;;;;;;5.70;45.68;100878.06;4482285;32;32850;-84
2022/01/19 00:06:00;;;;;;;;;;;;;;;5.16;46.52;100882.53;4481467;32;34758;-85
2022/01/19 00:08:28;;;;;;;;;;;;;;;6.33;44.46;100873.25;4483748;32;34342;-85
2022/01/19 00:10:56;;;;;;;;;;;;;;;7.25;41.79;100869.69;4482253;32;34358;-84
2022/01/19 00:13:23;;;;;;;;;;;;;;;7.06;41.86;100870.38;4476476;32;33657;-84
2022/01/19 00:15:50;;;;;;;;;;;;;;;7.48;41.22;100876.06;4482880;32;34893;-84
2022/01/19 00:18:18;;;;;;;;;;;;;;;7.76;40.68;100876.66;4477689;32;33954;-85
2022/01/19 00:20:46;;;;;;;;;;;;;;;7.29;40.63;100882.81;4481886;32;34322;-84
2022/01/19 00:23:15;;;;;;;;;;;;;;;7.64;40.97;100881.19;4482573;32;33673;-83
2022/01/19 00:25:43;;;;;;;;;;;;;;;7.46;40.44;100873.41;4482014;32;34044;-84
2022/01/19 00:28:12;;;;;;;;;;;;;;;7.66;40.97;100879.59;4481956;31;34928;-84
2022/01/19 00:30:39;;;;;;;;;;;;;;;7.86;39.84;100888.34;4480869;32;33106;-84
2022/01/19 00:33:07;;;;;;;;;;;;;;;7.90;39.58;100903.19;4478229;32;33677;-84
2022/01/19 00:35:35;;;;;;;;;;;;;;;8.35;38.50;100897.69;4478231;32;33971;-84
2022/01/19 00:38:06;;;;;;;;;;;;;;;8.48;37.92;100903.53;4481599;32;35350;-83
2022/01/19 00:40:33;;;;;;;;;;;;;;;8.25;38.18;100902.38;4480871;32;34390;-84
2022/01/19 00:43:01;;;;;;;;;;;;;;;7.40;40.90;100901.44;4474795;32;33513;-84
2022/01/19 00:45:28;;;;;;;;;;;;;;;8.25;38.50;100899.78;4481866;32;34053;-83
2022/01/19 00:47:55;;;;;;;;;;;;;;;7.96;38.81;100900.06;4482153;32;34114;-84
2022/01/19 00:50:24;;;;;;;;;;;;;;;8.08;38.50;100903.25;4481856;32;34164;-84
2022/01/19 00:52:52;;;;;;;;;;;;;;;8.02;38.69;100908.09;4471559;32;33629;-84
2022/01/19 00:55:20;;;;;;;;;;;;;;;7.53;40.55;100914.19;4477591;32;34291;-84
2022/01/19 00:57:48;;;;;;;;;;;;;;;7.27;40.98;100917.97;4482273;32;34061;-84
2022/01/19 01:00:19;;;;;;;;;;;;;;;7.20;41.47;100912.41;4482602;32;35031;-83
2022/01/19 01:02:47;;;;;;;;;;;;;;;7.59;40.17;100910.16;4479859;32;34437;-83
2022/01/19 01:05:14;;;;;;;;;;;;;;;7.14;41.29;100900.06;4480923;32;34969;-82
2022/01/19 01:07:41;;;;;;;;;;;;;;;7.70;39.40;100899.59;4482097;32;35210;-83
2022/01/19 01:10:10;;;;;;;;;;;;;;;8.31;38.26;100904.41;4481239;32;34784;-84
2022/01/19 01:12:47;;;;;;;;;;;;;;;7.58;40.32;100901.53;4481034;32;33497;-84
2022/01/19 01:18:20;;;;;;;;;;;;;;;7.52;39.94;100884.03;4478389;32;33989;-84
2022/01/19 01:20:51;;;;;;;;;;;;;;;7.94;38.82;100881.00;4482292;32;35536;-84
2022/01/19 01:23:20;;;;;;;;;;;;;;;8.11;37.86;100871.53;4472408;32;33542;-84
2022/01/19 01:25:47;;;;;;;;;;;;;;;7.85;38.65;100867.63;4480958;32;34307;-84
2022/01/19 01:28:15;;;;;;;;;;;;;;;8.39;37.61;100868.63;4475692;32;34672;-84
2022/01/19 01:30:43;;;;;;;;;;;;;;;8.43;36.92;100862.78;4480852;32;35172;-84
2022/01/19 01:33:10;;;;;;;;;;;;;;;8.32;37.00;100861.34;4481971;32;33567;-83
2022/01/19 01:35:38;;;;;;;;;;;;;;;8.33;36.93;100838.16;4482286;32;35083;-84
2022/01/19 01:38:06;;;;;;;;;;;;;;;8.35;36.71;100830.50;4482039;32;34385;-83
2022/01/19 01:40:34;;;;;;;;;;;;;;;7.90;37.45;100835.16;4481824;32;34519;-84
2022/01/19 01:43:02;;;;;;;;;;;;;;;7.85;37.46;100841.81;4482294;32;34398;-84
2022/01/19 01:45:33;;;;;;;;;;;;;;;8.03;37.32;100842.69;4480154;32;33787;-84
2022/01/19 01:48:06;;;;;;;;;;;;;;;8.08;36.96;100832.63;4481142;32;34447;-84
2022/01/19 01:53:28;;;;;;;;;;;;;;;7.35;38.59;100829.75;4481067;32;32785;-85
2022/01/19 01:56:06;;;;;;;;;;;;;;;7.13;38.92;100828.66;4482185;32;33913;-85
2022/01/19 01:58:35;;;;;;;;;;;;;;;7.62;38.17;100833.78;4480430;32;35117;-86
2022/01/19 02:01:06;;;;;;;;;;;;;;;8.09;37.25;100821.47;4480753;32;35173;-85
2022/01/19 02:03:38;;;;;;;;;;;;;;;7.94;37.03;100817.31;4480718;32;33318;-85
2022/01/19 02:09:13;;;;;;;;;;;;;;;7.75;37.29;100807.75;4480910;32;34255;-83
2022/01/19 02:22:58;;;;;;;;;;;;;;;7.53;37.56;100808.38;4455125;31;34703;-84
2022/01/19 02:25:31;;;;;;;;;;;;;;;7.54;37.61;100805.00;4481852;32;34809;-84
2022/01/19 02:36:36;;;;;;;;;;;;;;;7.39;37.26;100783.56;4481135;32;33308;-85
2022/01/19 02:41:51;;;;;;;;;;;;;;;7.77;36.80;100782.03;4478790;32;33922;-86
2022/01/19 02:49:50;;;;;;;;;;;;;;;7.69;36.98;100786.81;4481526;32;33977;-85
2022/01/19 02:52:17;;;;;;;;;;;;;;;7.14;37.75;100771.09;4474872;32;34534;-84
2022/01/19 02:54:45;;;;;;;;;;;;;;;7.66;36.83;100767.72;4483152;32;33927;-85
2022/01/19 02:57:13;;;;;;;;;;;;;;;7.78;36.22;100763.16;4483189;32;33694;-85
2022/01/19 03:10:31;;;;;;;;;;;;;;;7.80;36.33;100752.09;4483476;32;34919;-84
2022/01/19 03:12:58;;;;;;;;;;;;;;;7.77;36.27;100749.37;4482368;32;34516;-85
2022/01/19 03:15:26;;;;;;;;;;;;;;;7.85;36.16;100754.91;4482005;32;34836;-85
2022/01/19 03:17:58;;;;;;;;;;;;;;;7.54;36.29;100748.22;4482137;32;33267;-85
2022/01/19 03:20:26;;;;;;;;;;;;;;;7.77;36.12;100745.91;4483377;32;34074;-83
2022/01/19 03:25:27;;;;;;;;;;;;;;;7.48;36.52;100744.44;4483552;32;34444;-85
2022/01/19 03:27:54;;;;;;;;;;;;;;;7.79;35.71;100732.22;4482314;32;34340;-85
2022/01/19 03:30:21;;;;;;;;;;;;;;;7.54;36.09;100731.84;4481072;31;34252;-85
2022/01/19 03:32:49;;;;;;;;;;;;;;;7.66;35.74;100742.78;4483232;32;34599;-85
2022/01/19 03:35:16;;;;;;;;;;;;;;;7.40;36.37;100744.06;4483117;32;34264;-86
2022/01/19 03:37:44;;;;;;;;;;;;;;;7.20;36.79;100744.75;4481906;32;32810;-85
2022/01/19 03:40:12;;;;;;;;;;;;;;;7.63;36.13;100737.47;4483471;32;34785;-85
2022/01/19 03:42:39;;;;;;;;;;;;;;;7.55;36.18;100738.78;4482835;32;34500;-85
2022/01/19 03:45:08;;;;;;;;;;;;;;;7.59;36.09;100745.00;4483253;32;34168;-83
2022/01/19 03:47:41;;;;;;;;;;;;;;;7.53;36.21;100742.97;4483393;32;33958;-86
2022/01/19 03:50:09;;;;;;;;;;;;;;;7.39;36.25;100736.25;4483200;32;34198;-85
2022/01/19 03:52:37;;;;;;;;;;;;;;;7.47;36.26;100740.09;4483089;32;34376;-85
2022/01/19 03:55:04;;;;;;;;;;;;;;;7.41;36.24;100740.66;4482401;32;34254;-85
2022/01/19 03:57:31;;;;;;;;;;;;;;;7.59;35.72;100739.81;4483174;32;34901;-86
2022/01/19 03:59:59;;;;;;;;;;;;;;;7.44;36.29;100734.78;4483250;32;35109;-85
2022/01/19 04:02:26;;;;;;;;;;;;;;;7.44;36.40;100733.06;4476716;32;35307;-85
2022/01/19 04:05:04;;;;;;;;;;;;;;;7.23;36.61;100747.47;4482835;32;34600;-85
2022/01/19 04:07:32;;;;;;;;;;;;;;;7.32;36.46;100748.81;4482884;32;33729;-85
2022/01/19 04:10:00;;;;;;;;;;;;;;;7.48;36.22;100736.69;4471694;31;33909;-85
2022/01/19 04:15:20;;;;;;;;;;;;;;;7.46;36.09;100738.31;4459993;31;34287;-86
2022/01/19 04:17:53;;;;;;;;;;;;;;;7.42;36.37;100747.59;4482226;32;33856;-86
2022/01/19 04:20:24;;;;;;;;;;;;;;;7.47;36.07;100738.41;4469734;32;33782;-86
2022/01/19 04:22:54;;;;;;;;;;;;;;;7.37;36.22;100736.16;4482509;32;33980;-86
2022/01/19 04:25:22;;;;;;;;;;;;;;;7.12;36.66;100741.75;4483049;32;34451;-86
2022/01/19 04:27:49;;;;;;;;;;;;;;;7.36;36.26;100725.78;4483126;32;33167;-86
2022/01/19 04:30:17;;;;;;;;;;;;;;;7.43;36.03;100717.53;4479757;31;33766;-86
2022/01/19 04:33:02;;;;;;;;;;;;;;;7.45;36.22;100727.09;4482806;32;33966;-85
2022/01/19 04:35:33;;;;;;;;;;;;;;;7.35;36.52;100724.87;4475504;32;35063;-86
2022/01/19 04:47:28;;;;;;;;;;;;;;;7.28;36.29;100713.38;4480080;32;35288;-86
2022/01/19 05:05:37;;;;;;;;;;;;;;;7.23;36.05;100699.34;4476899;32;178116;-85
2022/01/19 05:08:20;;;;;;;;;;;;;;;7.44;35.71;100694.37;4481743;32;35129;-85
2022/01/19 05:13:36;;;;;;;;;;;;;;;7.28;35.65;100697.00;4467962;32;34612;-86
2022/01/19 05:16:04;;;;;;;;;;;;;;;7.04;36.32;100694.03;4480469;32;37528;-84
2022/01/19 05:18:32;;;;;;;;;;;;;;;7.12;36.38;100695.31;4481486;32;34535;-84
2022/01/19 05:20:59;;;;;;;;;;;;;;;7.30;35.86;100700.53;4482999;32;32978;-85
2022/01/19 05:23:28;;;;;;;;;;;;;;;7.22;35.59;100694.09;4483089;32;34233;-85
2022/01/19 05:25:55;;;;;;;;;;;;;;;7.07;36.04;100686.47;4482593;32;35219;-84
2022/01/19 05:28:25;;;;;;;;;;;;;;;7.21;35.83;100695.81;4482473;31;34171;-85
2022/01/19 05:30:52;;;;;;;;;;;;;;;7.21;35.68;100690.66;4482619;32;33735;-86
2022/01/19 05:33:21;;;;;;;;;;;;;;;7.03;35.98;100690.59;4482891;32;33745;-86
2022/01/19 05:35:49;;;;;;;;;;;;;;;7.09;35.92;100690.03;4482323;32;34299;-85
2022/01/19 05:38:17;;;;;;;;;;;;;;;7.18;35.49;100693.06;4482409;32;34584;-86
2022/01/19 05:40:46;;;;;;;;;;;;;;;7.29;35.29;100684.16;4482818;32;34345;-85
2022/01/19 05:43:13;;;;;;;;;;;;;;;7.04;35.70;100692.34;4482416;32;34938;-86
2022/01/19 05:45:41;;;;;;;;;;;;;;;6.94;35.82;100697.87;4482313;32;34374;-86
2022/01/19 05:48:09;;;;;;;;;;;;;;;6.98;35.89;100696.34;4482344;32;34347;-85
2022/01/19 05:50:38;;;;;;;;;;;;;;;7.02;35.94;100695.69;4482516;32;34544;-86
2022/01/19 05:53:05;;;;;;;;;;;;;;;7.02;35.85;100687.94;4481974;32;34337;-87
2022/01/19 05:55:32;;;;;;;;;;;;;;;6.83;36.10;100684.41;4481519;32;34576;-86
2022/01/19 05:58:00;;;;;;;;;;;;;;;6.63;36.62;100686.75;4482029;32;34033;-84
2022/01/19 06:00:27;;;;;;;;;;;;;;;6.54;36.66;100689.72;4482509;32;33476;-84
2022/01/19 06:02:54;;;;;;;;;;;;;;;6.79;36.59;100691.91;4482255;32;33656;-86
2022/01/19 06:05:24;;;;;;;;;;;;;;;7.00;36.07;100699.84;4468167;32;33228;-84
2022/01/19 06:08:08;;;;;;;;;;;;;;;6.75;36.52;100698.59;4480778;32;35109;-86
2022/01/19 06:10:44;;;;;;;;;;;;;;;6.88;36.23;100699.22;4481960;32;33950;-86
2022/01/19 06:13:13;;;;;;;;;;;;;;;6.92;36.15;100702.03;4482203;32;35010;-85
2022/01/19 06:15:40;;;;;;;;;;;;;;;6.81;36.26;100703.16;4480417;32;34460;-86
2022/01/19 06:18:08;;;;;;;;;;;;;;;7.25;35.58;100694.25;4483535;32;35260;-85
2022/01/19 06:20:35;;;;;;;;;;;;;;;7.09;35.68;100694.31;4484359;32;33725;-86
2022/01/19 06:23:02;;;;;;;;;;;;;;;7.08;36.03;100698.56;4484193;32;33493;-86
2022/01/19 06:25:33;;;;;;;;;;;;;;;7.28;35.57;100694.44;4483104;32;33792;-86
2022/01/19 06:28:00;;;;;;;;;;;;;;;7.21;35.48;100695.81;4484084;32;33565;-86
2022/01/19 06:30:28;;;;;;;;;;;;;;;7.15;35.67;100700.63;4482638;32;33724;-85
2022/01/19 06:32:55;;;;;;;;;;;;;;;6.68;36.71;100709.38;4484175;32;35109;-86
2022/01/19 06:35:22;;;;;;;;;;;;;;;6.90;36.23;100701.09;4482933;32;34385;-84
2022/01/19 06:37:50;;;;;;;;;;;;;;;6.88;36.13;100700.12;4484120;32;34423;-85
2022/01/19 06:40:19;;;;;;;;;;;;;;;7.09;35.87;100691.72;4483713;32;33465;-85
2022/01/19 06:42:46;;;;;;;;;;;;;;;7.05;35.98;100695.84;4484077;32;33954;-84
2022/01/19 06:45:14;;;;;;;;;;;;;;;7.09;36.26;100702.94;4484428;32;33993;-85
2022/01/19 06:47:42;;;;;;;;;;;;;;;7.03;36.54;100687.13;4484073;32;34465;-85
2022/01/19 06:50:09;;;;;;;;;;;;;;;7.10;36.47;100686.62;4483751;32;33020;-85
2022/01/19 06:52:38;;;;;;;;;;;;;;;7.10;36.36;100691.78;4482382;32;34543;-85
2022/01/19 06:55:06;;;;;;;;;;;;;;;6.99;36.83;100687.78;4484009;32;34390;-86
2022/01/19 06:57:33;;;;;;;;;;;;;;;6.98;37.09;100692.06;4484103;32;34355;-85
2022/01/19 07:00:11;;;;;;;;;;;;;;;7.11;36.94;100685.81;4484099;32;33374;-84
2022/01/19 07:02:39;;;;;;;;;;;;;;;7.32;36.78;100683.44;4483888;32;34013;-86
2022/01/19 07:05:07;;;;;;;;;;;;;;;7.06;36.88;100675.28;4483982;32;34394;-86
2022/01/19 07:07:35;;;;;;;;;;;;;;;6.89;37.78;100675.22;4483162;32;34963;-85
2022/01/19 07:10:02;;;;;;;;;;;;;;;7.19;37.60;100675.88;4482970;32;33986;-84
2022/01/19 07:12:31;;;;;;;;;;;;;;;7.30;37.50;100667.87;4484105;32;34161;-84
2022/01/19 07:14:58;;;;;;;;;;;;;;;7.46;37.24;100669.53;4484131;32;35152;-84
2022/01/19 07:17:26;;;;;;;;;;;;;;;7.38;37.24;100668.25;4468808;32;34541;-86
2022/01/19 07:19:54;;;;;;;;;;;;;;;7.12;38.16;100663.50;4484110;32;34196;-85
2022/01/19 07:22:22;;;;;;;;;;;;;;;7.28;38.28;100659.19;4484036;32;33842;-85
2022/01/19 07:24:52;;;;;;;;;;;;;;;7.61;37.77;100663.34;4483552;32;34102;-85
2022/01/19 07:27:19;;;;;;;;;;;;;;;7.61;37.71;100655.59;4483943;32;34512;-85
2022/01/19 07:29:46;;;;;;;;;;;;;;;7.73;37.29;100659.66;4483174;32;33438;-85
2022/01/19 07:32:14;;;;;;;;;;;;;;;7.68;37.51;100653.38;4483780;32;34591;-86
2022/01/19 07:34:43;;;;;;;;;;;;;;;7.69;37.46;100659.44;4483194;32;34382;-85
2022/01/19 07:37:11;;;;;;;;;;;;;;;7.67;37.79;100650.75;4483982;32;34259;-86
2022/01/19 07:39:38;;;;;;;;;;;;;;;7.85;37.60;100643.00;4483652;32;33467;-86
2022/01/19 07:42:06;;;;;;;;;;;;;;;7.85;37.32;100630.09;4483639;32;34900;-86
2022/01/19 07:44:35;;;;;;;;;;;;;;;7.51;38.00;100631.06;4484102;32;32122;-86
2022/01/19 07:47:09;;;;;;;;;;;;;;;7.73;38.19;100636.44;4483683;32;34518;-86
2022/01/19 07:49:37;;;;;;;;;;;;;;;7.78;38.12;100634.06;4482541;32;34057;-84
2022/01/19 07:52:06;;;;;;;;;;;;;;;7.91;38.11;100635.53;4480453;32;34590;-86
2022/01/19 07:54:34;;;;;;;;;;;;;;;7.91;38.41;100631.22;4483684;32;33716;-86
2022/01/19 07:57:01;;;;;;;;;;;;;;;7.70;39.40;100636.28;4483732;32;35284;-86
2022/01/19 07:59:29;;;;;;;;;;;;;;;7.43;39.96;100633.25;4483628;32;33472;-86
2022/01/19 08:01:58;;;;;;;;;;;;;;;7.38;40.48;100631.25;4483391;32;34039;-86
2022/01/19 08:04:27;;;;;;;;;;;;;;;7.44;40.28;100641.88;4483605;32;35354;-86
2022/01/19 08:06:55;;;;;;;;;;;;;;;6.61;42.12;100635.12;4483418;32;35211;-86
2022/01/19 08:09:23;;;;;;;;;;;;;;;6.50;42.74;100636.25;4483418;32;33709;-85
2022/01/19 08:11:51;;;;;;;;;;;;;;;6.58;42.96;100629.81;4483771;32;34892;-85
2022/01/19 08:14:18;;;;;;;;;;;;;;;6.45;43.88;100632.56;4483496;32;35734;-86
2022/01/19 08:16:46;;;;;;;;;;;;;;;6.92;42.38;100628.97;4483617;32;34101;-86
2022/01/19 08:19:14;;;;;;;;;;;;;;;6.51;43.26;100630.28;4483776;32;33476;-86
2022/01/19 08:21:41;;;;;;;;;;;;;;;6.33;43.69;100623.37;4481979;32;34919;-86
2022/01/19 08:24:08;;;;;;;;;;;;;;;6.24;43.74;100624.56;4483729;32;34047;-86
2022/01/19 08:26:36;;;;;;;;;;;;;;;6.04;44.43;100621.81;4483855;32;33744;-86
2022/01/19 08:29:05;;;;;;;;;;;;;;;6.49;43.59;100621.62;4482226;31;33261;-86
2022/01/19 08:31:33;;;;;;;;;;;;;;;6.59;43.34;100618.69;4483508;32;34094;-86
2022/01/19 08:34:04;;;;;;;;;;;;;;;5.81;45.25;100625.69;4482272;32;34156;-85
2022/01/19 08:36:33;;;;;;;;;;;;;;;5.88;45.23;100624.34;4483146;32;35306;-86
2022/01/19 08:39:01;;;;;;;;;;;;;;;6.21;44.56;100620.16;4483154;32;33022;-86
2022/01/19 08:41:30;;;;;;;;;;;;;;;5.15;47.18;100636.50;4483459;32;35027;-86
2022/01/19 08:43:57;;;;;;;;;;;;;;;5.48;46.44;100626.38;4483290;32;34374;-86
2022/01/19 08:46:24;;;;;;;;;;;;;;;6.11;44.95;100630.78;4483473;32;35223;-85
2022/01/19 08:48:54;;;;;;;;;;;;;;;5.49;46.33;100628.13;4483381;32;33561;-86
2022/01/19 08:51:27;;;;;;;;;;;;;;;6.00;45.65;100625.03;4483485;32;34610;-85
2022/01/19 08:53:54;;;;;;;;;;;;;;;6.58;44.19;100624.66;4483426;32;33924;-85
2022/01/19 08:56:24;;;;;;;;;;;;;;;6.92;43.16;100624.69;4483223;32;34221;-86
2022/01/19 08:58:51;;;;;;;;;;;;;;;7.14;42.83;100618.03;4482929;32;34378;-86
2022/01/19 09:01:18;;;;;;;;;;;;;;;7.47;42.22;100621.41;4482947;32;34203;-86
2022/01/19 09:03:46;;;;;;;;;;;;;;;6.70;43.96;100614.97;4482818;32;34455;-86
2022/01/19 09:06:13;;;;;;;;;;;;;;;6.17;45.47;100620.78;4483185;32;35372;-86
2022/01/19 09:08:41;;;;;;;;;;;;;;;7.28;42.70;100615.34;4483029;32;33476;-85
2022/01/19 09:11:09;;;;;;;;;;;;;;;6.91;43.40;100611.75;4482563;32;34254;-86
2022/01/19 09:13:36;;;;;;;;;;;;;;;7.20;42.88;100611.50;4482690;32;33977;-86
2022/01/19 09:16:03;;;;;;;;;;;;;;;7.23;43.03;100610.75;4482943;32;34573;-86
2022/01/19 09:18:30;;;;;;;;;;;;;;;6.86;43.68;100611.50;4482963;32;33596;-86
2022/01/19 09:20:58;;;;;;;;;;;;;;;7.58;42.57;100609.91;4482902;32;34003;-86
2022/01/19 09:23:25;;;;;;;;;;;;;;;8.26;40.88;100607.03;4481607;32;34460;-86
2022/01/19 09:25:52;;;;;;;;;;;;;;;8.27;40.89;100611.38;4482621;32;34707;-86
2022/01/19 09:28:19;;;;;;;;;;;;;;;7.51;42.32;100613.00;4482588;32;33689;-86
2022/01/19 09:30:48;;;;;;;;;;;;;;;7.45;42.70;100613.56;4482951;32;34058;-85
2022/01/19 09:33:20;;;;;;;;;;;;;;;7.28;43.24;100609.31;4482828;32;33975;-86
2022/01/19 09:36:04;;;;;;;;;;;;;;;6.42;45.13;100616.94;4482817;32;34253;-86
2022/01/19 09:38:34;;;;;;;;;;;;;;;6.58;44.50;100604.03;4482627;32;33664;-85
2022/01/19 09:41:02;;;;;;;;;;;;;;;6.69;44.66;100604.59;4482597;32;34092;-86
2022/01/19 09:43:29;;;;;;;;;;;;;;;7.21;43.47;100600.38;4482435;32;34384;-85
2022/01/19 09:45:57;;;;;;;;;;;;;;;6.98;43.39;100594.06;4482472;32;35341;-86
2022/01/19 09:48:25;;;;;;;;;;;;;;;7.90;41.75;100595.03;4482589;32;34458;-86
2022/01/19 09:50:54;;;;;;;;;;;;;;;7.37;42.64;100589.09;4482519;32;34220;-86
2022/01/19 09:53:21;;;;;;;;;;;;;;;7.63;42.07;100586.88;4484141;32;34302;-86
2022/01/19 09:55:48;;;;;;;;;;;;;;;7.80;41.87;100576.53;4483091;32;34100;-86
2022/01/19 09:58:17;;;;;;;;;;;;;;;7.47;41.95;100570.66;4484465;32;33653;-86
2022/01/19 10:00:45;;;;;;;;;;;;;;;7.44;42.47;100565.34;4484404;32;34492;-85
2022/01/19 10:03:22;;;;;;;;;;;;;;;7.16;42.68;100560.59;4484861;32;34580;-86
2022/01/19 10:05:55;;;;;;;;;;;;;;;7.80;41.96;100555.87;4484154;32;35287;-85
2022/01/19 10:08:29;;;;;;;;;;;;;;;7.28;42.71;100556.00;4484236;32;33775;-86
2022/01/19 10:11:10;;;;;;;;;;;;;;;6.55;43.86;100547.19;4482533;32;34038;-85
2022/01/19 10:19:14;;;;;;;;;;;;;;;6.04;45.99;100531.72;4484294;32;33690;-85
2022/01/19 10:21:56;;;;;;;;;;;;;;;6.52;44.79;100522.19;4482884;32;34049;-86
2022/01/19 10:24:39;;;;;;;;;;;;;;;7.20;43.16;100512.63;4484281;32;34190;-86
2022/01/19 10:27:25;;;;;;;;;;;;;;;6.90;44.17;100519.75;4484324;32;34247;-86
2022/01/19 10:29:57;;;;;;;;;;;;;;;7.49;42.26;100503.62;4482980;32;34322;-86
2022/01/19 10:32:24;;;;;;;;;;;;;;;6.87;44.19;100504.13;4483016;32;34173;-85
2022/01/19 10:34:52;;;;;;;;;;;;;;;7.64;42.48;100501.75;4484002;32;35148;-86
2022/01/19 10:37:27;;;;;;;;;;;;;;;8.08;41.43;100486.50;4482722;32;34352;-87
2022/01/19 10:39:57;;;;;;;;;;;;;;;8.24;40.75;100476.03;4484065;32;33347;-86
2022/01/19 10:42:27;;;;;;;;;;;;;;;7.84;41.20;100468.22;4484266;32;33956;-86
2022/01/19 10:44:58;;;;;;;;;;;;;;;8.05;41.07;100459.72;4483870;32;34284;-86
2022/01/19 10:47:40;;;;;;;;;;;;;;;7.83;41.80;100471.63;4482781;32;34932;-85
2022/01/19 10:50:12;;;;;;;;;;;;;;;7.87;41.50;100452.88;4483995;32;34346;-86
2022/01/19 10:52:40;;;;;;;;;;;;;;;8.49;40.48;100444.41;4484030;32;33905;-86
2022/01/19 10:55:11;;;;;;;;;;;;;;;8.51;40.75;100450.50;4483819;32;34069;-86
2022/01/19 10:57:40;;;;;;;;;;;;;;;7.46;42.38;100445.06;4484092;32;35325;-87
2022/01/19 11:00:13;;;;;;;;;;;;;;;7.72;42.05;100440.16;4484182;32;33325;-86
2022/01/19 11:02:41;;;;;;;;;;;;;;;7.44;42.84;100435.47;4483555;32;33720;-86
2022/01/19 11:05:09;;;;;;;;;;;;;;;8.71;40.04;100423.78;4484375;32;34909;-86
2022/01/19 11:07:36;;;;;;;;;;;;;;;9.07;39.12;100417.41;4484038;32;34574;-86
2022/01/19 11:10:13;;;;;;;;;;;;;;;8.50;40.09;100421.19;4483671;31;34111;-86
2022/01/19 11:12:46;;;;;;;;;;;;;;;7.44;42.59;100423.44;4482535;32;33923;-86
2022/01/19 11:15:15;;;;;;;;;;;;;;;7.20;43.13;100419.75;4483610;32;35163;-87
2022/01/19 11:17:43;;;;;;;;;;;;;;;6.76;44.16;100411.69;4483877;32;34267;-86
2022/01/19 11:20:12;;;;;;;;;;;;;;;6.95;44.40;100404.84;4483822;32;33400;-86
2022/01/19 11:22:57;;;;;;;;;;;;;;;8.08;42.12;100389.25;4483753;32;33302;-85
2022/01/19 11:25:35;;;;;;;;;;;;;;;8.28;42.22;100393.53;4483814;32;34246;-87
2022/01/19 11:28:28;;;;;;;;;;;;;;;8.47;40.92;100379.69;4483627;31;35253;-86
2022/01/19 11:30:55;;;;;;;;;;;;;;;9.17;39.64;100367.78;4483730;32;33426;-86
2022/01/19 11:33:27;;;;;;;;;;;;;;;9.59;38.72;100373.63;4483478;32;34079;-86
2022/01/19 11:36:00;;;;;;;;;;;;;;;9.78;38.02;100363.94;4482831;32;33870;-86
2022/01/19 11:38:34;;;;;;;;;;;;;;;9.27;39.13;100369.84;4483360;32;35343;-86
2022/01/19 11:41:25;;;;;;;;;;;;;;;9.09;40.36;100362.31;4483931;32;33223;-86
2022/01/19 11:43:53;;;;;;;;;;;;;;;8.80;41.13;100347.38;4483405;32;33647;-86
2022/01/19 11:46:28;;;;;;;;;;;;;;;9.74;39.09;100342.22;4482458;32;34484;-86
2022/01/19 11:48:56;;;;;;;;;;;;;;;9.31;39.93;100334.63;4482507;32;34329;-87
2022/01/19 11:51:25;;;;;;;;;;;;;;;9.19;40.26;100342.81;4483746;32;33302;-86
2022/01/19 11:53:59;;;;;;;;;;;;;;;9.75;38.97;100344.88;4483398;32;34240;-86
2022/01/19 11:56:26;;;;;;;;;;;;;;;8.90;40.72;100340.03;4483467;32;34575;-86
2022/01/19 11:59:07;;;;;;;;;;;;;;;8.81;40.72;100331.03;4483595;32;34292;-86
2022/01/19 12:01:35;;;;;;;;;;;;;;;9.75;38.89;100337.09;4483612;32;33261;-86
2022/01/19 12:04:17;;;;;;;;;;;;;;;9.25;39.80;100320.66;4483643;32;33959;-86
2022/01/19 12:06:44;;;;;;;;;;;;;;;9.72;38.95;100326.62;4483489;32;34999;-86
2022/01/19 12:09:15;;;;;;;;;;;;;;;10.16;37.93;100316.88;4483492;32;34111;-86
2022/01/19 12:11:53;;;;;;;;;;;;;;;9.84;38.21;100312.34;4483511;32;33332;-86
2022/01/19 12:14:35;;;;;;;;;;;;;;;9.90;38.07;100310.84;4482662;32;34140;-86
2022/01/19 12:17:07;;;;;;;;;;;;;;;10.12;37.95;100304.66;4483524;32;34506;-86
2022/01/19 12:19:40;;;;;;;;;;;;;;;10.28;37.56;100294.81;4482268;32;35208;-86
2022/01/19 12:22:17;;;;;;;;;;;;;;;9.30;39.21;100291.47;4483322;32;33746;-86
2022/01/19 12:24:54;;;;;;;;;;;;;;;9.66;38.77;100295.34;4482013;32;34388;-86
2022/01/19 12:27:27;;;;;;;;;;;;;;;9.47;38.85;100301.59;4482146;32;34453;-86
2022/01/19 12:29:58;;;;;;;;;;;;;;;9.82;38.19;100288.97;4483319;31;34528;-86
2022/01/19 12:32:31;;;;;;;;;;;;;;;9.72;38.61;100287.78;4483428;32;33103;-86
2022/01/19 12:35:05;;;;;;;;;;;;;;;9.67;38.74;100281.56;4482357;32;34560;-86
2022/01/19 12:37:35;;;;;;;;;;;;;;;10.28;37.45;100274.97;4483302;32;33810;-86
2022/01/19 12:40:06;;;;;;;;;;;;;;;9.93;38.20;100279.00;4483156;32;34593;-86
2022/01/19 12:42:40;;;;;;;;;;;;;;;10.16;37.66;100266.78;4483171;32;34603;-86
2022/01/19 12:45:37;;;;;;;;;;;;;;;9.67;38.81;100263.44;4483206;32;34343;-86
2022/01/19 12:48:05;;;;;;;;;;;;;;;9.80;38.93;100261.25;4469187;32;34118;-86
2022/01/19 12:50:34;;;;;;;;;;;;;;;10.42;37.23;100247.78;4482998;32;34454;-86
2022/01/19 12:53:15;;;;;;;;;;;;;;;9.54;39.25;100255.19;4483253;32;33379;-86
2022/01/19 12:55:46;;;;;;;;;;;;;;;10.21;38.18;100245.34;4483232;32;34062;-86
2022/01/19 12:58:15;;;;;;;;;;;;;;;9.96;37.91;100247.97;4482058;32;33808;-86
2022/01/19 13:00:45;;;;;;;;;;;;;;;8.78;40.28;100241.28;4481667;32;35321;-86
2022/01/19 13:03:13;;;;;;;;;;;;;;;9.01;40.81;100239.53;4483068;32;33741;-86
2022/01/19 13:05:47;;;;;;;;;;;;;;;9.54;39.01;100232.78;4482917;32;34228;-86
2022/01/19 13:08:23;;;;;;;;;;;;;;;9.91;38.65;100234.00;4483375;32;35334;-86
2022/01/19 13:10:53;;;;;;;;;;;;;;;10.57;37.45;100213.66;4482894;32;33920;-86
2022/01/19 13:16:01;;;;;;;;;;;;;;;10.36;37.50;100200.03;4481778;32;33548;-86
2022/01/19 13:18:37;;;;;;;;;;;;;;;10.42;37.59;100198.50;4482814;32;34459;-86
2022/01/19 13:21:05;;;;;;;;;;;;;;;10.06;38.00;100206.00;4482839;32;34458;-86
2022/01/19 13:23:34;;;;;;;;;;;;;;;10.02;38.27;100192.91;4478978;32;34460;-86
2022/01/19 13:26:05;;;;;;;;;;;;;;;10.17;37.42;100202.03;4482547;32;33722;-86
2022/01/19 13:28:33;;;;;;;;;;;;;;;10.34;37.32;100191.31;4482646;32;34448;-86
2022/01/19 13:31:10;;;;;;;;;;;;;;;9.22;39.66;100193.75;4480017;32;35353;-86
2022/01/19 13:33:38;;;;;;;;;;;;;;;10.29;37.65;100185.13;4466321;32;33332;-86
2022/01/19 13:36:05;;;;;;;;;;;;;;;10.14;38.48;100191.56;4466443;32;35231;-86
2022/01/19 13:38:32;;;;;;;;;;;;;;;9.70;38.72;100190.19;4466646;32;34338;-86
2022/01/19 13:41:01;;;;;;;;;;;;;;;9.17;39.70;100182.38;4466720;32;34650;-86
2022/01/19 13:43:31;;;;;;;;;;;;;;;10.18;38.18;100174.41;4466726;32;33205;-86
2022/01/19 13:46:02;;;;;;;;;;;;;;;10.86;37.02;100164.31;4465301;32;34052;-86
2022/01/19 13:48:31;;;;;;;;;;;;;;;10.60;37.79;100159.25;4466466;32;33814;-86
2022/01/19 13:50:59;;;;;;;;;;;;;;;10.48;37.92;100158.91;4466520;32;34286;-86
2022/01/19 13:53:27;;;;;;;;;;;;;;;10.52;38.06;100167.66;4465208;32;34423;-86
2022/01/19 13:55:56;;;;;;;;;;;;;;;9.80;39.49;100161.12;4465313;32;34082;-86
2022/01/19 13:58:25;;;;;;;;;;;;;;;10.85;37.53;100153.06;4466347;32;33773;-86
2022/01/19 14:00:55;;;;;;;;;;;;;;;11.02;37.35;100147.44;4465470;32;34578;-85
2022/01/19 14:03:25;;;;;;;;;;;;;;;11.29;36.66;100152.47;4466279;32;33461;-86
2022/01/19 14:05:54;;;;;;;;;;;;;;;10.91;37.05;100139.34;4466304;32;34062;-86
2022/01/19 14:08:28;;;;;;;;;;;;;;;10.81;37.36;100137.38;4466497;32;34838;-85
2022/01/19 14:10:55;;;;;;;;;;;;;;;10.27;38.62;100133.25;4466402;32;34115;-86
2022/01/19 14:13:23;;;;;;;;;;;;;;;9.86;39.35;100143.22;4466276;32;34120;-86
2022/01/19 14:15:50;;;;;;;;;;;;;;;10.43;38.63;100137.16;4466486;32;34391;-86
2022/01/19 14:18:17;;;;;;;;;;;;;;;10.53;38.26;100128.84;4466090;32;34183;-86
2022/01/19 14:20:45;;;;;;;;;;;;;;;10.61;37.98;100124.72;4466180;32;34259;-86
2022/01/19 14:23:15;;;;;;;;;;;;;;;10.74;37.87;100127.66;4466462;32;33658;-86
2022/01/19 14:25:43;;;;;;;;;;;;;;;10.91;37.44;100124.69;4466599;32;33988;-86
2022/01/19 14:28:14;;;;;;;;;;;;;;;10.94;37.58;100116.09;4466119;32;35428;-86